createdAt,value
2022-10-22T00:00:09.220Z,97805.00
2022-10-22T00:00:19.348Z,97807.00
2022-10-22T00:00:29.536Z,97805.00
2022-10-22T00:00:39.649Z,97807.00
2022-10-22T00:00:49.652Z,97805.00
2022-10-22T00:00:59.913Z,97805.00
2022-10-22T00:01:09.904Z,97807.00
2022-10-22T00:01:19.903Z,97807.00
2022-10-22T00:01:29.899Z,97807.00
2022-10-22T00:01:40.029Z,97805.00
2022-10-22T00:01:50.025Z,97805.00
2022-10-22T00:02:00.166Z,97805.00
2022-10-22T00:02:10.263Z,97805.00
2022-10-22T00:02:20.472Z,97803.00
2022-10-22T00:02:30.438Z,97807.00
2022-10-22T00:02:40.508Z,97807.00
2022-10-22T00:02:50.524Z,97807.00
2022-10-22T00:03:00.568Z,97809.00
2022-10-22T00:03:10.915Z,97807.00
2022-10-22T00:03:20.928Z,97807.00
2022-10-22T00:03:31.048Z,97807.00
2022-10-22T00:03:41.293Z,97807.00
2022-10-22T00:03:51.417Z,97809.00
2022-10-22T00:04:01.536Z,97809.00
2022-10-22T00:04:11.671Z,97805.00
2022-10-22T00:04:21.793Z,97807.00
2022-10-22T00:04:34.564Z,97807.00
2022-10-22T00:04:42.188Z,97809.00
2022-10-22T00:04:52.183Z,97809.00
2022-10-22T00:05:02.338Z,97811.00
2022-10-22T00:05:12.571Z,97811.00
2022-10-22T00:05:22.689Z,97811.00
2022-10-22T00:05:32.806Z,97815.00
2022-10-22T00:05:42.936Z,97813.00
2022-10-22T00:05:53.068Z,97815.00
2022-10-22T00:06:03.192Z,97811.00
2022-10-22T00:06:13.312Z,97815.00
2022-10-22T00:06:23.429Z,97815.00
2022-10-22T00:06:33.440Z,97817.00
2022-10-22T00:06:43.694Z,97817.00
2022-10-22T00:06:53.810Z,97819.00
2022-10-22T00:07:03.939Z,97819.00
2022-10-22T00:07:14.063Z,97819.00
2022-10-22T00:07:24.064Z,97819.00
2022-10-22T00:07:34.176Z,97821.00
2022-10-22T00:07:44.435Z,97821.00
2022-10-22T00:07:54.551Z,97821.00
2022-10-22T00:08:04.665Z,97821.00
2022-10-22T00:08:14.789Z,97823.00
2022-10-22T00:08:24.906Z,97821.00
2022-10-22T00:08:35.081Z,97823.00
2022-10-22T00:08:45.258Z,97823.00
2022-10-22T00:08:55.320Z,97823.00
2022-10-22T00:09:05.494Z,97823.00
2022-10-22T00:09:15.439Z,97821.00
2022-10-22T00:09:25.438Z,97821.00
2022-10-22T00:09:35.552Z,97823.00
2022-10-22T00:09:45.556Z,97821.00
2022-10-22T00:09:55.676Z,97821.00
2022-10-22T00:10:05.675Z,97823.00
2022-10-22T00:10:15.792Z,97819.00
2022-10-22T00:10:25.912Z,97819.00
2022-10-22T00:10:36.031Z,97817.00
2022-10-22T00:10:46.154Z,97815.00
2022-10-22T00:10:56.217Z,97815.00
2022-10-22T00:11:06.346Z,97813.00
2022-10-22T00:11:16.460Z,97815.00
2022-10-22T00:11:26.589Z,97813.00
2022-10-22T00:11:36.581Z,97811.00
2022-10-22T00:11:46.579Z,97811.00
2022-10-22T00:11:56.610Z,97811.00
2022-10-22T00:12:06.618Z,97809.00
2022-10-22T00:12:16.607Z,97809.00
2022-10-22T00:12:26.723Z,97811.00
2022-10-22T00:12:36.844Z,97809.00
2022-10-22T00:12:46.962Z,97805.00
2022-10-22T00:12:57.097Z,97805.00
2022-10-22T00:13:07.103Z,97803.00
2022-10-22T00:13:17.223Z,97803.00
2022-10-22T00:13:27.339Z,97801.00
2022-10-22T00:13:37.513Z,97801.00
2022-10-22T00:13:57.590Z,97797.00
2022-10-22T00:14:07.834Z,97797.00
2022-10-22T00:14:17.960Z,97791.00
2022-10-22T00:14:28.078Z,97789.00
2022-10-22T00:14:38.198Z,97791.00
2022-10-22T00:14:48.318Z,97787.00
2022-10-22T00:14:58.434Z,97787.00
2022-10-22T00:15:08.562Z,97785.00
2022-10-22T00:15:18.567Z,97785.00
2022-10-22T00:15:28.559Z,97780.00
2022-10-22T00:15:38.936Z,97782.00
2022-10-22T00:15:48.938Z,97782.00
2022-10-22T00:15:59.057Z,97782.00
2022-10-22T00:16:09.315Z,97782.00
2022-10-22T00:16:19.429Z,97780.00
2022-10-22T00:16:29.428Z,97780.00
2022-10-22T00:16:39.678Z,97780.00
2022-10-22T00:16:49.793Z,97780.00
2022-10-22T00:16:59.797Z,97778.00
2022-10-22T00:17:11.487Z,97776.00
2022-10-22T00:17:20.159Z,97776.00
2022-10-22T00:17:30.152Z,97778.00
2022-10-22T00:17:40.848Z,97774.00
2022-10-22T00:17:50.546Z,97778.00
2022-10-22T00:18:00.529Z,97776.00
2022-10-22T00:18:10.776Z,97776.00
2022-10-22T00:18:20.902Z,97774.00
2022-10-22T00:18:30.892Z,97772.00
2022-10-22T00:18:41.142Z,97774.00
2022-10-22T00:18:51.261Z,97770.00
2022-10-22T00:19:01.265Z,97768.00
2022-10-22T00:19:11.517Z,97764.00
2022-10-22T00:19:21.635Z,97764.00
2022-10-22T00:19:31.765Z,97760.00
2022-10-22T00:19:41.898Z,97758.00
2022-10-22T00:19:51.897Z,97756.00
2022-10-22T00:20:01.897Z,97752.00
2022-10-22T00:20:11.899Z,97754.00
2022-10-22T00:20:22.024Z,97748.00
2022-10-22T00:20:32.141Z,97748.00
2022-10-22T00:20:42.260Z,97746.00
2022-10-22T00:20:52.260Z,97742.00
2022-10-22T00:21:02.392Z,97738.00
2022-10-22T00:21:12.500Z,97737.00
2022-10-22T00:21:22.626Z,97733.00
2022-10-22T00:21:32.624Z,97731.00
2022-10-22T00:21:42.749Z,97729.00
2022-10-22T00:21:52.757Z,97727.00
2022-10-22T00:22:02.746Z,97723.00
2022-10-22T00:22:12.743Z,97715.00
2022-10-22T00:22:22.999Z,97713.00
2022-10-22T00:22:33.001Z,97709.00
2022-10-22T00:22:43.178Z,97709.00
2022-10-22T00:22:53.443Z,97709.00
2022-10-22T00:23:03.444Z,97705.00
2022-10-22T00:23:13.602Z,97707.00
2022-10-22T00:23:23.898Z,97709.00
2022-10-22T00:23:33.890Z,97707.00
2022-10-22T00:23:43.907Z,97709.00
2022-10-22T00:23:54.279Z,97711.00
2022-10-22T00:24:04.413Z,97711.00
2022-10-22T00:24:14.415Z,97711.00
2022-10-22T00:24:24.681Z,97715.00
2022-10-22T00:24:34.674Z,97715.00
2022-10-22T00:24:44.799Z,97725.00
2022-10-22T00:24:55.069Z,97725.00
2022-10-22T00:25:05.072Z,97725.00
2022-10-22T00:25:15.194Z,97725.00
2022-10-22T00:25:25.452Z,97727.00
2022-10-22T00:25:35.454Z,97729.00
2022-10-22T00:25:45.457Z,97727.00
2022-10-22T00:25:55.463Z,97727.00
2022-10-22T00:26:05.457Z,97733.00
2022-10-22T00:26:15.578Z,97733.00
2022-10-22T00:26:25.574Z,97733.00
2022-10-22T00:26:35.578Z,97733.00
2022-10-22T00:26:45.705Z,97735.00
2022-10-22T00:26:55.703Z,97733.00
2022-10-22T00:27:05.827Z,97735.00
2022-10-22T00:27:15.945Z,97737.00
2022-10-22T00:27:26.077Z,97737.00
2022-10-22T00:27:36.203Z,97737.00
2022-10-22T00:27:46.369Z,97737.00
2022-10-22T00:27:56.377Z,97742.00
2022-10-22T00:28:06.622Z,97740.00
2022-10-22T00:28:16.630Z,97742.00
2022-10-22T00:28:26.623Z,97744.00
2022-10-22T00:28:36.998Z,97746.00
2022-10-22T00:28:47.142Z,97748.00
2022-10-22T00:28:57.135Z,97752.00
2022-10-22T00:29:07.389Z,97752.00
2022-10-22T00:29:17.507Z,97754.00
2022-10-22T00:29:27.636Z,97760.00
2022-10-22T00:29:37.760Z,97764.00
2022-10-22T00:29:47.878Z,97766.00
2022-10-22T00:29:57.995Z,97768.00
2022-10-22T00:30:08.118Z,97768.00
2022-10-22T00:30:18.138Z,97772.00
2022-10-22T00:30:28.135Z,97770.00
2022-10-22T00:30:38.136Z,97774.00
2022-10-22T00:30:48.133Z,97778.00
2022-10-22T00:30:58.253Z,97780.00
2022-10-22T00:31:08.367Z,97778.00
2022-10-22T00:31:18.381Z,97778.00
2022-10-22T00:31:28.502Z,97782.00
2022-10-22T00:31:38.496Z,97782.00
2022-10-22T00:31:48.677Z,97787.00
2022-10-22T00:31:58.721Z,97784.00
2022-10-22T00:32:08.827Z,97791.00
2022-10-22T00:32:18.981Z,97791.00
2022-10-22T00:32:29.086Z,97789.00
2022-10-22T00:32:39.367Z,97793.00
2022-10-22T00:32:49.395Z,97791.00
2022-10-22T00:32:59.415Z,97793.00
2022-10-22T00:33:09.407Z,97791.00
2022-10-22T00:33:19.796Z,97791.00
2022-10-22T00:33:29.787Z,97793.00
2022-10-22T00:33:39.905Z,97793.00
2022-10-22T00:33:50.153Z,97795.00
2022-10-22T00:34:00.154Z,97795.00
2022-10-22T00:34:10.269Z,97793.00
2022-10-22T00:34:20.518Z,97793.00
2022-10-22T00:34:30.635Z,97795.00
2022-10-22T00:34:40.751Z,97793.00
2022-10-22T00:34:50.893Z,97797.00
2022-10-22T00:35:00.878Z,97797.00
2022-10-22T00:35:10.995Z,97799.00
2022-10-22T00:35:21.272Z,97801.00
2022-10-22T00:35:31.256Z,97803.00
2022-10-22T00:35:41.373Z,97803.00
2022-10-22T00:35:51.634Z,97803.00
2022-10-22T00:36:01.632Z,97803.00
2022-10-22T00:36:11.754Z,97803.00
2022-10-22T00:36:21.998Z,97805.00
2022-10-22T00:36:32.115Z,97805.00
2022-10-22T00:36:42.232Z,97805.00
2022-10-22T00:36:52.368Z,97805.00
2022-10-22T00:37:02.491Z,97809.00
2022-10-22T00:37:12.502Z,97805.00
2022-10-22T00:37:22.758Z,97807.00
2022-10-22T00:37:32.758Z,97807.00
2022-10-22T00:37:42.874Z,97807.00
2022-10-22T00:37:53.132Z,97807.00
2022-10-22T00:38:03.130Z,97807.00
2022-10-22T00:38:13.253Z,97807.00
2022-10-22T00:38:23.511Z,97805.00
2022-10-22T00:38:33.630Z,97805.00
2022-10-22T00:38:43.644Z,97805.00
2022-10-22T00:38:53.902Z,97803.00
2022-10-22T00:39:03.905Z,97807.00
2022-10-22T00:39:14.021Z,97805.00
2022-10-22T00:39:24.269Z,97805.00
2022-10-22T00:39:34.388Z,97803.00
2022-10-22T00:39:44.389Z,97801.00
2022-10-22T00:39:54.644Z,97801.00
2022-10-22T00:40:04.666Z,97799.00
2022-10-22T00:40:14.781Z,97799.00
2022-10-22T00:40:25.045Z,97799.00
2022-10-22T00:40:35.036Z,97797.00
2022-10-22T00:40:45.049Z,97795.00
2022-10-22T00:40:55.510Z,97795.00
2022-10-22T00:41:05.497Z,97795.00
2022-10-22T00:41:15.614Z,97797.00
2022-10-22T00:41:25.866Z,97795.00
2022-10-22T00:41:35.866Z,97793.00
2022-10-22T00:41:45.989Z,97795.00
2022-10-22T00:41:56.235Z,97793.00
2022-10-22T00:42:06.355Z,97793.00
2022-10-22T00:42:16.482Z,97793.00
2022-10-22T00:42:26.613Z,97793.00
2022-10-22T00:42:36.742Z,97791.00
2022-10-22T00:42:46.739Z,97791.00
2022-10-22T00:42:57.017Z,97791.00
2022-10-22T00:43:06.987Z,97789.00
2022-10-22T00:43:17.109Z,97791.00
2022-10-22T00:43:27.353Z,97791.00
2022-10-22T00:43:37.479Z,97791.00
2022-10-22T00:43:47.596Z,97795.00
2022-10-22T00:43:57.731Z,97791.00
2022-10-22T00:44:07.717Z,97791.00
2022-10-22T00:44:17.834Z,97795.00
2022-10-22T00:44:28.083Z,97795.00
2022-10-22T00:44:38.086Z,97797.00
2022-10-22T00:44:48.203Z,97793.00
2022-10-22T00:44:58.461Z,97797.00
2022-10-22T00:45:08.457Z,97797.00
2022-10-22T00:45:18.457Z,97795.00
2022-10-22T00:45:28.832Z,97795.00
2022-10-22T00:45:38.950Z,97795.00
2022-10-22T00:45:49.072Z,97795.00
2022-10-22T00:45:59.199Z,97793.00
2022-10-22T00:46:09.318Z,97793.00
2022-10-22T00:46:19.320Z,97795.00
2022-10-22T00:46:29.579Z,97793.00
2022-10-22T00:46:39.701Z,97797.00
2022-10-22T00:46:49.694Z,97793.00
2022-10-22T00:46:59.951Z,97795.00
2022-10-22T00:47:09.950Z,97795.00
2022-10-22T00:47:20.075Z,97795.00
2022-10-22T00:47:30.361Z,97795.00
2022-10-22T00:47:40.460Z,97797.00
2022-10-22T00:47:50.456Z,97793.00
2022-10-22T00:48:00.721Z,97797.00
2022-10-22T00:48:10.715Z,97799.00
2022-10-22T00:48:20.832Z,97795.00
2022-10-22T00:48:31.088Z,97797.00
2022-10-22T00:48:41.099Z,97797.00
2022-10-22T00:48:51.101Z,97801.00
2022-10-22T00:49:01.108Z,97797.00
2022-10-22T00:49:11.226Z,97799.00
2022-10-22T00:49:21.333Z,97799.00
2022-10-22T00:49:31.455Z,97799.00
2022-10-22T00:49:41.574Z,97799.00
2022-10-22T00:49:51.735Z,97799.00
2022-10-22T00:50:01.737Z,97799.00
2022-10-22T00:50:11.870Z,97799.00
2022-10-22T00:50:21.979Z,97795.00
2022-10-22T00:50:32.100Z,97799.00
2022-10-22T00:50:42.097Z,97797.00
2022-10-22T00:50:52.215Z,97797.00
2022-10-22T00:51:02.212Z,97799.00
2022-10-22T00:51:12.345Z,97797.00
2022-10-22T00:51:22.462Z,97797.00
2022-10-22T00:51:32.462Z,97797.00
2022-10-22T00:51:42.586Z,97797.00
2022-10-22T00:51:52.707Z,97797.00
2022-10-22T00:52:02.707Z,97799.00
2022-10-22T00:52:12.955Z,97797.00
2022-10-22T00:52:22.951Z,97797.00
2022-10-22T00:52:33.073Z,97799.00
2022-10-22T00:52:43.579Z,97801.00
2022-10-22T00:52:53.406Z,97799.00
2022-10-22T00:53:03.527Z,97799.00
2022-10-22T00:53:13.784Z,97801.00
2022-10-22T00:53:23.781Z,97801.00
2022-10-22T00:53:33.901Z,97801.00
2022-10-22T00:53:44.175Z,97803.00
2022-10-22T00:53:54.172Z,97803.00
2022-10-22T00:54:04.289Z,97803.00
2022-10-22T00:54:14.538Z,97805.00
2022-10-22T00:54:24.543Z,97803.00
2022-10-22T00:54:34.658Z,97803.00
2022-10-22T00:54:44.909Z,97805.00
2022-10-22T00:54:55.025Z,97807.00
2022-10-22T00:55:05.021Z,97805.00
2022-10-22T00:55:15.292Z,97805.00
2022-10-22T00:55:25.285Z,97805.00
2022-10-22T00:55:35.400Z,97805.00
2022-10-22T00:55:45.652Z,97805.00
2022-10-22T00:55:55.769Z,97805.00
2022-10-22T00:56:05.770Z,97807.00
2022-10-22T00:56:16.023Z,97807.00
2022-10-22T00:56:26.022Z,97805.00
2022-10-22T00:56:36.024Z,97807.00
2022-10-22T00:56:46.021Z,97803.00
2022-10-22T00:56:56.053Z,97803.00
2022-10-22T00:57:06.171Z,97805.00
2022-10-22T00:57:16.298Z,97807.00
2022-10-22T00:57:26.424Z,97805.00
2022-10-22T00:57:36.420Z,97803.00
2022-10-22T00:57:46.539Z,97805.00
2022-10-22T00:57:56.786Z,97803.00
2022-10-22T00:58:06.785Z,97803.00
2022-10-22T00:58:16.905Z,97803.00
2022-10-22T00:58:27.151Z,97807.00
2022-10-22T00:58:37.267Z,97803.00
2022-10-22T00:58:47.354Z,97801.00
2022-10-22T00:58:57.744Z,97807.00
2022-10-22T00:59:17.792Z,97807.00
2022-10-22T00:59:27.802Z,97803.00
2022-10-22T00:59:37.793Z,97803.00
2022-10-22T00:59:47.911Z,97807.00
2022-10-22T00:59:58.029Z,97803.00
2022-10-22T01:00:08.147Z,97805.00
2022-10-22T01:00:18.268Z,97807.00
2022-10-22T01:00:28.522Z,97805.00
2022-10-22T01:00:38.500Z,97805.00
2022-10-22T01:00:48.535Z,97807.00
2022-10-22T01:00:58.599Z,97805.00
2022-10-22T01:01:08.822Z,97805.00
2022-10-22T01:01:18.859Z,97807.00
2022-10-22T01:01:28.885Z,97805.00
2022-10-22T01:01:39.137Z,97807.00
2022-10-22T01:01:49.139Z,97805.00
2022-10-22T01:01:59.258Z,97805.00
2022-10-22T01:02:09.505Z,97807.00
2022-10-22T01:02:19.634Z,97807.00
2022-10-22T01:02:29.656Z,97805.00
2022-10-22T01:02:40.156Z,97807.00
2022-10-22T01:02:50.007Z,97805.00
2022-10-22T01:03:00.123Z,97807.00
2022-10-22T01:03:10.246Z,97807.00
2022-10-22T01:03:20.364Z,97807.00
2022-10-22T01:03:30.365Z,97809.00
2022-10-22T01:03:40.617Z,97809.00
2022-10-22T01:03:50.747Z,97809.00
2022-10-22T01:04:00.741Z,97809.00
2022-10-22T01:04:10.996Z,97807.00
2022-10-22T01:04:21.121Z,97811.00
2022-10-22T01:04:31.116Z,97809.00
2022-10-22T01:04:41.368Z,97809.00
2022-10-22T01:04:51.489Z,97809.00
2022-10-22T01:05:01.483Z,97809.00
2022-10-22T01:05:11.758Z,97809.00
2022-10-22T01:05:21.748Z,97807.00
2022-10-22T01:05:31.749Z,97807.00
2022-10-22T01:05:42.131Z,97807.00
2022-10-22T01:05:52.130Z,97807.00
2022-10-22T01:06:02.130Z,97807.00
2022-10-22T01:06:12.506Z,97805.00
2022-10-22T01:06:22.622Z,97809.00
2022-10-22T01:06:32.620Z,97807.00
2022-10-22T01:06:42.872Z,97803.00
2022-10-22T01:06:52.871Z,97807.00
2022-10-22T01:07:02.996Z,97805.00
2022-10-22T01:07:13.255Z,97805.00
2022-10-22T01:07:23.372Z,97803.00
2022-10-22T01:07:33.486Z,97805.00
2022-10-22T01:07:43.607Z,97803.00
2022-10-22T01:07:53.731Z,97803.00
2022-10-22T01:08:03.913Z,97805.00
2022-10-22T01:08:14.064Z,97803.00
2022-10-22T01:08:24.176Z,97803.00
2022-10-22T01:08:34.327Z,97803.00
2022-10-22T01:08:44.554Z,97803.00
2022-10-22T01:08:54.606Z,97803.00
2022-10-22T01:09:04.640Z,97805.00
2022-10-22T01:09:14.579Z,97803.00
2022-10-22T01:09:24.677Z,97803.00
2022-10-22T01:09:34.698Z,97805.00
2022-10-22T01:09:44.690Z,97805.00
2022-10-22T01:09:54.691Z,97801.00
2022-10-22T01:10:04.730Z,97801.00
2022-10-22T01:10:14.847Z,97801.00
2022-10-22T01:10:24.991Z,97801.00
2022-10-22T01:10:34.989Z,97801.00
2022-10-22T01:10:45.106Z,97801.00
2022-10-22T01:10:55.392Z,97799.00
2022-10-22T01:11:05.387Z,97799.00
2022-10-22T01:11:15.501Z,97797.00
2022-10-22T01:11:25.771Z,97799.00
2022-10-22T01:11:35.869Z,97797.00
2022-10-22T01:11:45.887Z,97797.00
2022-10-22T01:11:56.142Z,97795.00
2022-10-22T01:12:06.260Z,97795.00
2022-10-22T01:12:16.260Z,97795.00
2022-10-22T01:12:26.510Z,97795.00
2022-10-22T01:12:36.517Z,97797.00
2022-10-22T01:12:46.635Z,97795.00
2022-10-22T01:12:56.888Z,97795.00
2022-10-22T01:13:06.890Z,97795.00
2022-10-22T01:13:16.898Z,97797.00
2022-10-22T01:13:27.266Z,97795.00
2022-10-22T01:13:37.397Z,97795.00
2022-10-22T01:13:47.392Z,97795.00
2022-10-22T01:13:57.653Z,97795.00
2022-10-22T01:14:07.779Z,97793.00
2022-10-22T01:14:17.769Z,97795.00
2022-10-22T01:14:28.028Z,97793.00
2022-10-22T01:14:38.023Z,97795.00
2022-10-22T01:14:48.024Z,97793.00
2022-10-22T01:14:58.020Z,97793.00
2022-10-22T01:15:08.147Z,97793.00
2022-10-22T01:15:18.211Z,97795.00
2022-10-22T01:15:28.331Z,97793.00
2022-10-22T01:15:38.347Z,97795.00
2022-10-22T01:15:48.356Z,97795.00
2022-10-22T01:15:58.355Z,97793.00
2022-10-22T01:16:08.485Z,97795.00
2022-10-22T01:16:18.516Z,97793.00
2022-10-22T01:16:28.522Z,97795.00
2022-10-22T01:16:38.910Z,97793.00
2022-10-22T01:16:48.899Z,97793.00
2022-10-22T01:16:59.019Z,97795.00
2022-10-22T01:17:09.324Z,97789.00
2022-10-22T01:17:29.429Z,97789.00
2022-10-22T01:17:39.960Z,97789.00
2022-10-22T01:17:49.712Z,97789.00
2022-10-22T01:17:59.687Z,97789.00
2022-10-22T01:18:10.055Z,97791.00
2022-10-22T01:18:20.058Z,97789.00
2022-10-22T01:18:30.173Z,97789.00
2022-10-22T01:18:40.419Z,97789.00
2022-10-22T01:18:50.535Z,97789.00
2022-10-22T01:19:00.679Z,97791.00
2022-10-22T01:19:10.807Z,97789.00
2022-10-22T01:19:20.806Z,97787.00
2022-10-22T01:19:30.946Z,97789.00
2022-10-22T01:19:41.193Z,97789.00
2022-10-22T01:19:51.311Z,97787.00
2022-10-22T01:20:01.308Z,97789.00
2022-10-22T01:20:11.557Z,97791.00
2022-10-22T01:20:21.557Z,97791.00
2022-10-22T01:20:31.558Z,97791.00
2022-10-22T01:20:41.953Z,97787.00
2022-10-22T01:20:52.051Z,97791.00
2022-10-22T01:21:02.047Z,97789.00
2022-10-22T01:21:12.296Z,97793.00
2022-10-22T01:21:22.412Z,97791.00
2022-10-22T01:21:32.529Z,97791.00
2022-10-22T01:21:42.650Z,97791.00
2022-10-22T01:21:52.792Z,97791.00
2022-10-22T01:22:02.794Z,97793.00
2022-10-22T01:22:13.040Z,97793.00
2022-10-22T01:22:23.157Z,97793.00
2022-10-22T01:22:33.273Z,97795.00
2022-10-22T01:22:43.397Z,97793.00
2022-10-22T01:22:53.512Z,97793.00
2022-10-22T01:23:03.630Z,97791.00
2022-10-22T01:23:13.761Z,97795.00
2022-10-22T01:23:23.762Z,97793.00
2022-10-22T01:23:33.881Z,97793.00
2022-10-22T01:23:44.127Z,97795.00
2022-10-22T01:23:54.251Z,97793.00
2022-10-22T01:24:04.295Z,97795.00
2022-10-22T01:24:14.548Z,97795.00
2022-10-22T01:24:24.663Z,97795.00
2022-10-22T01:24:34.786Z,97795.00
2022-10-22T01:24:44.901Z,97795.00
2022-10-22T01:24:55.019Z,97795.00
2022-10-22T01:25:05.134Z,97795.00
2022-10-22T01:25:15.256Z,97793.00
2022-10-22T01:25:25.373Z,97795.00
2022-10-22T01:25:35.495Z,97797.00
2022-10-22T01:25:45.620Z,97793.00
2022-10-22T01:25:55.736Z,97795.00
2022-10-22T01:26:05.852Z,97797.00
2022-10-22T01:26:16.047Z,97795.00
2022-10-22T01:26:26.037Z,97797.00
2022-10-22T01:26:36.151Z,97795.00
2022-10-22T01:26:46.406Z,97793.00
2022-10-22T01:26:56.523Z,97793.00
2022-10-22T01:27:06.641Z,97791.00
2022-10-22T01:27:16.770Z,97793.00
2022-10-22T01:27:26.761Z,97793.00
2022-10-22T01:27:36.903Z,97793.00
2022-10-22T01:27:47.233Z,97793.00
2022-10-22T01:27:57.352Z,97795.00
2022-10-22T01:28:07.349Z,97795.00
2022-10-22T01:28:17.607Z,97795.00
2022-10-22T01:28:27.595Z,97795.00
2022-10-22T01:28:37.715Z,97795.00
2022-10-22T01:28:47.963Z,97795.00
2022-10-22T01:28:58.082Z,97797.00
2022-10-22T01:29:08.091Z,97797.00
2022-10-22T01:29:18.350Z,97797.00
2022-10-22T01:29:28.359Z,97797.00
2022-10-22T01:29:38.343Z,97799.00
2022-10-22T01:29:48.717Z,97799.00
2022-10-22T01:29:58.717Z,97799.00
2022-10-22T01:30:08.719Z,97797.00
2022-10-22T01:30:19.094Z,97799.00
2022-10-22T01:30:29.089Z,97795.00
2022-10-22T01:30:39.214Z,97795.00
2022-10-22T01:30:49.468Z,97795.00
2022-10-22T01:30:59.587Z,97795.00
2022-10-22T01:31:09.703Z,97795.00
2022-10-22T01:31:19.826Z,97791.00
2022-10-22T01:31:29.827Z,97791.00
2022-10-22T01:31:39.951Z,97789.00
2022-10-22T01:31:50.208Z,97787.00
2022-10-22T01:32:00.335Z,97785.00
2022-10-22T01:32:10.327Z,97784.00
2022-10-22T01:32:20.582Z,97782.00
2022-10-22T01:32:30.708Z,97782.00
2022-10-22T01:32:40.700Z,97780.00
2022-10-22T01:32:50.948Z,97780.00
2022-10-22T01:33:00.975Z,97778.00
2022-10-22T01:33:11.088Z,97778.00
2022-10-22T01:33:21.329Z,97776.00
2022-10-22T01:33:31.448Z,97776.00
2022-10-22T01:33:41.578Z,97776.00
2022-10-22T01:33:51.712Z,97772.00
2022-10-22T01:34:01.706Z,97772.00
2022-10-22T01:34:11.835Z,97772.00
2022-10-22T01:34:22.082Z,97772.00
2022-10-22T01:34:32.206Z,97774.00
2022-10-22T01:34:42.207Z,97772.00
2022-10-22T01:34:52.463Z,97774.00
2022-10-22T01:35:02.579Z,97776.00
2022-10-22T01:35:12.708Z,97772.00
2022-10-22T01:35:22.947Z,97772.00
2022-10-22T01:35:43.041Z,97776.00
2022-10-22T01:35:53.293Z,97778.00
2022-10-22T01:36:03.411Z,97780.00
2022-10-22T01:36:13.409Z,97778.00
2022-10-22T01:36:23.657Z,97782.00
2022-10-22T01:36:33.774Z,97780.00
2022-10-22T01:36:43.897Z,97784.00
2022-10-22T01:36:54.032Z,97780.00
2022-10-22T01:37:04.050Z,97784.00
2022-10-22T01:37:14.041Z,97784.00
2022-10-22T01:37:24.039Z,97782.00
2022-10-22T01:37:34.178Z,97784.00
2022-10-22T01:37:44.179Z,97787.00
2022-10-22T01:37:54.168Z,97787.00
2022-10-22T01:38:04.291Z,97785.00
2022-10-22T01:38:14.297Z,97787.00
2022-10-22T01:38:24.447Z,97787.00
2022-10-22T01:38:34.459Z,97787.00
2022-10-22T01:38:44.457Z,97787.00
2022-10-22T01:38:54.577Z,97789.00
2022-10-22T01:39:04.854Z,97787.00
2022-10-22T01:39:14.850Z,97787.00
2022-10-22T01:39:24.974Z,97789.00
2022-10-22T01:39:35.239Z,97785.00
2022-10-22T01:39:45.242Z,97787.00
2022-10-22T01:39:55.243Z,97785.00
2022-10-22T01:40:05.243Z,97785.00
2022-10-22T01:40:15.364Z,97784.00
2022-10-22T01:40:25.502Z,97784.00
2022-10-22T01:40:35.482Z,97784.00
2022-10-22T01:40:45.490Z,97784.00
2022-10-22T01:40:55.619Z,97784.00
2022-10-22T01:41:05.734Z,97784.00
2022-10-22T01:41:15.735Z,97784.00
2022-10-22T01:41:25.735Z,97785.00
2022-10-22T01:41:35.854Z,97782.00
2022-10-22T01:41:45.981Z,97787.00
2022-10-22T01:41:56.043Z,97784.00
2022-10-22T01:42:06.166Z,97784.00
2022-10-22T01:42:16.416Z,97785.00
2022-10-22T01:42:26.533Z,97785.00
2022-10-22T01:42:36.649Z,97785.00
2022-10-22T01:42:46.772Z,97785.00
2022-10-22T01:42:56.888Z,97785.00
2022-10-22T01:43:07.016Z,97787.00
2022-10-22T01:43:17.151Z,97789.00
2022-10-22T01:43:27.267Z,97787.00
2022-10-22T01:43:37.394Z,97787.00
2022-10-22T01:43:47.602Z,97789.00
2022-10-22T01:43:57.720Z,97791.00
2022-10-22T01:44:07.838Z,97793.00
2022-10-22T01:44:17.958Z,97793.00
2022-10-22T01:44:28.129Z,97791.00
2022-10-22T01:44:38.116Z,97795.00
2022-10-22T01:44:48.373Z,97795.00
2022-10-22T01:44:58.490Z,97793.00
2022-10-22T01:45:08.609Z,97795.00
2022-10-22T01:45:18.832Z,97795.00
2022-10-22T01:45:28.950Z,97795.00
2022-10-22T01:45:39.072Z,97797.00
2022-10-22T01:45:49.210Z,97793.00
2022-10-22T01:45:59.334Z,97791.00
2022-10-22T01:46:09.330Z,97793.00
2022-10-22T01:46:19.662Z,97795.00
2022-10-22T01:46:29.781Z,97795.00
2022-10-22T01:46:39.788Z,97797.00
2022-10-22T01:46:50.034Z,97795.00
2022-10-22T01:47:00.166Z,97797.00
2022-10-22T01:47:10.164Z,97797.00
2022-10-22T01:47:20.433Z,97797.00
2022-10-22T01:47:30.432Z,97795.00
2022-10-22T01:47:40.742Z,97797.00
2022-10-22T01:47:50.895Z,97797.00
2022-10-22T01:48:01.018Z,97797.00
2022-10-22T01:48:11.041Z,97795.00
2022-10-22T01:48:21.270Z,97797.00
2022-10-22T01:48:31.391Z,97797.00
2022-10-22T01:48:41.406Z,97797.00
2022-10-22T01:48:51.647Z,97797.00
2022-10-22T01:49:01.761Z,97799.00
2022-10-22T01:49:11.879Z,97799.00
2022-10-22T01:49:21.998Z,97799.00
2022-10-22T01:49:32.010Z,97801.00
2022-10-22T01:49:42.001Z,97799.00
2022-10-22T01:49:52.381Z,97799.00
2022-10-22T01:50:02.409Z,97799.00
2022-10-22T01:50:12.388Z,97799.00
2022-10-22T01:50:22.760Z,97801.00
2022-10-22T01:50:32.892Z,97801.00
2022-10-22T01:50:43.002Z,97801.00
2022-10-22T01:50:53.124Z,97799.00
2022-10-22T01:51:03.256Z,97799.00
2022-10-22T01:51:13.269Z,97797.00
2022-10-22T01:51:23.520Z,97797.00
2022-10-22T01:51:33.640Z,97797.00
2022-10-22T01:51:43.637Z,97795.00
2022-10-22T01:51:53.884Z,97797.00
2022-10-22T01:52:04.002Z,97797.00
2022-10-22T01:52:14.129Z,97797.00
2022-10-22T01:52:24.256Z,97797.00
2022-10-22T01:52:34.373Z,97797.00
2022-10-22T01:52:44.492Z,97795.00
2022-10-22T01:52:54.620Z,97795.00
2022-10-22T01:53:04.695Z,97795.00
2022-10-22T01:53:14.814Z,97797.00
2022-10-22T01:53:25.068Z,97793.00
2022-10-22T01:53:35.224Z,97795.00
2022-10-22T01:53:55.118Z,97793.00
2022-10-22T01:54:05.235Z,97793.00
2022-10-22T01:54:15.235Z,97793.00
2022-10-22T01:54:25.350Z,97795.00
2022-10-22T01:54:35.353Z,97795.00
2022-10-22T01:54:45.474Z,97795.00
2022-10-22T01:54:55.472Z,97795.00
2022-10-22T01:55:05.612Z,97795.00
2022-10-22T01:55:15.603Z,97799.00
2022-10-22T01:55:25.730Z,97799.00
2022-10-22T01:55:35.853Z,97797.00
2022-10-22T01:55:45.977Z,97799.00
2022-10-22T01:55:55.973Z,97797.00
2022-10-22T01:56:06.225Z,97801.00
2022-10-22T01:56:16.220Z,97801.00
2022-10-22T01:56:26.349Z,97803.00
2022-10-22T01:56:36.607Z,97807.00
2022-10-22T01:56:46.680Z,97805.00
2022-10-22T01:56:56.676Z,97807.00
2022-10-22T01:57:07.062Z,97811.00
2022-10-22T01:57:17.071Z,97813.00
2022-10-22T01:57:27.063Z,97813.00
2022-10-22T01:57:37.064Z,97815.00
2022-10-22T01:57:47.123Z,97815.00
2022-10-22T01:57:57.165Z,97815.00
2022-10-22T01:58:07.289Z,97819.00
2022-10-22T01:58:17.536Z,97817.00
2022-10-22T01:58:27.651Z,97821.00
2022-10-22T01:58:37.768Z,97821.00
2022-10-22T01:58:47.908Z,97821.00
2022-10-22T01:58:57.899Z,97821.00
2022-10-22T01:59:08.029Z,97821.00
2022-10-22T01:59:18.278Z,97821.00
2022-10-22T01:59:28.401Z,97823.00
2022-10-22T01:59:38.524Z,97823.00